sensor_id;sensor_type;location;lat;lon;timestamp;pressure;altitude;pressure_sealevel;temperature;humidity
37486;BME280;23341;50.296;18.960;2024-02-26T00:00:04;48091.69;;;-144.43;100.00
37486;BME280;23341;50.296;18.960;2024-02-26T00:02:35;48097.69;;;-144.43;100.00
37486;BME280;23341;50.296;18.960;2024-02-26T00:05:05;48073.72;;;-144.43;100.00
37486;BME280;23341;50.296;18.960;2024-02-26T00:07:34;48103.69;;;-144.43;100.00
37486;BME280;23341;50.296;18.960;2024-02-26T00:10:02;48091.69;;;-144.43;100.00
37486;BME280;23341;50.296;18.960;2024-02-26T00:12:30;48093.69;;;-144.43;100.00
37486;BME280;23341;50.296;18.960;2024-02-26T00:14:57;48105.69;;;-144.43;100.00
37486;BME280;23341;50.296;18.960;2024-02-26T00:17:25;48113.69;;;-144.43;100.00
37486;BME280;23341;50.296;18.960;2024-02-26T00:19:52;48075.72;;;-144.43;100.00
37486;BME280;23341;50.296;18.960;2024-02-26T00:22:20;48093.69;;;-144.43;100.00
37486;BME280;23341;50.296;18.960;2024-02-26T00:24:49;48079.72;;;-144.43;100.00
37486;BME280;23341;50.296;18.960;2024-02-26T00:27:17;48089.69;;;-144.43;100.00
37486;BME280;23341;50.296;18.960;2024-02-26T00:29:44;48069.72;;;-144.43;100.00
37486;BME280;23341;50.296;18.960;2024-02-26T00:32:11;48111.69;;;-144.43;100.00
37486;BME280;23341;50.296;18.960;2024-02-26T00:34:39;48069.72;;;-144.43;100.00
37486;BME280;23341;50.296;18.960;2024-02-26T00:37:07;48079.72;;;-144.43;100.00
37486;BME280;23341;50.296;18.960;2024-02-26T00:39:34;48103.69;;;-144.43;100.00
37486;BME280;23341;50.296;18.960;2024-02-26T00:42:03;48099.69;;;-144.43;100.00
37486;BME280;23341;50.296;18.960;2024-02-26T00:44:31;48101.69;;;-144.43;100.00
37486;BME280;23341;50.296;18.960;2024-02-26T00:46:58;48083.72;;;-144.43;100.00
37486;BME280;23341;50.296;18.960;2024-02-26T00:49:26;48081.72;;;-144.43;100.00
37486;BME280;23341;50.296;18.960;2024-02-26T00:51:53;48085.69;;;-144.43;100.00
37486;BME280;23341;50.296;18.960;2024-02-26T00:54:21;48099.69;;;-144.43;100.00
37486;BME280;23341;50.296;18.960;2024-02-26T00:56:49;48111.69;;;-144.43;100.00
37486;BME280;23341;50.296;18.960;2024-02-26T00:59:18;48063.72;;;-144.43;100.00
37486;BME280;23341;50.296;18.960;2024-02-26T01:01:45;48093.69;;;-144.43;100.00
37486;BME280;23341;50.296;18.960;2024-02-26T01:04:13;48095.69;;;-144.43;100.00
37486;BME280;23341;50.296;18.960;2024-02-26T01:06:40;48099.69;;;-144.43;100.00
37486;BME280;23341;50.296;18.960;2024-02-26T01:09:08;48103.69;;;-144.43;100.00
37486;BME280;23341;50.296;18.960;2024-02-26T01:11:35;48079.72;;;-144.43;100.00
37486;BME280;23341;50.296;18.960;2024-02-26T01:14:03;48075.72;;;-144.43;100.00
37486;BME280;23341;50.296;18.960;2024-02-26T01:16:32;48083.72;;;-144.43;100.00
37486;BME280;23341;50.296;18.960;2024-02-26T01:19:00;48085.69;;;-144.43;100.00
37486;BME280;23341;50.296;18.960;2024-02-26T01:21:27;48075.72;;;-144.43;100.00
37486;BME280;23341;50.296;18.960;2024-02-26T01:23:56;48111.69;;;-144.43;100.00
37486;BME280;23341;50.296;18.960;2024-02-26T01:26:23;48093.69;;;-144.43;100.00
37486;BME280;23341;50.296;18.960;2024-02-26T01:28:51;48119.66;;;-144.43;100.00
37486;BME280;23341;50.296;18.960;2024-02-26T01:31:18;48081.72;;;-144.43;100.00
37486;BME280;23341;50.296;18.960;2024-02-26T01:33:47;48097.69;;;-144.43;100.00
37486;BME280;23341;50.296;18.960;2024-02-26T01:36:15;48103.69;;;-144.43;100.00
37486;BME280;23341;50.296;18.960;2024-02-26T01:38:42;48091.69;;;-144.43;100.00
37486;BME280;23341;50.296;18.960;2024-02-26T01:41:10;48109.69;;;-144.43;100.00
37486;BME280;23341;50.296;18.960;2024-02-26T01:43:37;48085.69;;;-144.43;100.00
37486;BME280;23341;50.296;18.960;2024-02-26T01:46:05;48083.72;;;-144.43;100.00
37486;BME280;23341;50.296;18.960;2024-02-26T01:48:33;48091.69;;;-144.43;100.00
37486;BME280;23341;50.296;18.960;2024-02-26T01:51:02;48091.69;;;-144.43;100.00
37486;BME280;23341;50.296;18.960;2024-02-26T01:53:30;48107.69;;;-144.43;100.00
37486;BME280;23341;50.296;18.960;2024-02-26T01:55:57;48089.69;;;-144.43;100.00
37486;BME280;23341;50.296;18.960;2024-02-26T01:58:25;48099.69;;;-144.43;100.00
37486;BME280;23341;50.296;18.960;2024-02-26T02:00:53;48115.66;;;-144.43;100.00
37486;BME280;23341;50.296;18.960;2024-02-26T14:04:21;48187.59;;;-144.43;80.18
37486;BME280;23341;50.296;18.960;2024-02-26T14:06:49;48221.56;;;-144.43;81.48
37486;BME280;23341;50.296;18.960;2024-02-26T14:09:17;48245.53;;;-144.43;81.27
37486;BME280;23341;50.296;18.960;2024-02-26T14:11:45;48205.59;;;-144.43;82.79
37486;BME280;23341;50.296;18.960;2024-02-26T14:14:13;48211.56;;;-144.43;83.35
37486;BME280;23341;50.296;18.960;2024-02-26T14:16:41;48197.59;;;-144.43;82.06
37486;BME280;23341;50.296;18.960;2024-02-26T14:19:09;48199.59;;;-144.43;83.11
37486;BME280;23341;50.296;18.960;2024-02-26T14:21:37;48181.59;;;-144.43;82.96
37486;BME280;23341;50.296;18.960;2024-02-26T14:24:05;48223.56;;;-144.43;82.66
37486;BME280;23341;50.296;18.960;2024-02-26T14:26:33;48207.59;;;-144.43;82.53
37486;BME280;23341;50.296;18.960;2024-02-26T14:29:01;48201.59;;;-144.43;82.08
37486;BME280;23341;50.296;18.960;2024-02-26T14:31:28;48231.56;;;-144.43;83.37
37486;BME280;23341;50.296;18.960;2024-02-26T14:33:56;48199.59;;;-144.43;84.47
37486;BME280;23341;50.296;18.960;2024-02-26T14:36:23;48181.59;;;-144.43;84.35
37486;BME280;23341;50.296;18.960;2024-02-26T14:38:53;48223.56;;;-144.43;84.40
37486;BME280;23341;50.296;18.960;2024-02-26T14:41:20;48219.56;;;-144.43;85.19
37486;BME280;23341;50.296;18.960;2024-02-26T14:43:48;48195.59;;;-144.43;87.51
37486;BME280;23341;50.296;18.960;2024-02-26T14:46:15;48223.56;;;-144.43;85.82
37486;BME280;23341;50.296;18.960;2024-02-26T14:48:43;48215.56;;;-144.43;85.03
37486;BME280;23341;50.296;18.960;2024-02-26T14:51:10;48209.59;;;-144.43;84.49
37486;BME280;23341;50.296;18.960;2024-02-26T14:53:38;48223.56;;;-144.43;86.18
37486;BME280;23341;50.296;18.960;2024-02-26T14:56:06;48191.59;;;-144.43;87.02
37486;BME280;23341;50.296;18.960;2024-02-26T14:58:35;48211.56;;;-144.43;87.52
37486;BME280;23341;50.296;18.960;2024-02-26T15:01:03;48207.59;;;-144.43;87.16
37486;BME280;23341;50.296;18.960;2024-02-26T15:03:31;48189.59;;;-144.43;87.61
37486;BME280;23341;50.296;18.960;2024-02-26T15:05:59;48185.59;;;-144.43;89.82
37486;BME280;23341;50.296;18.960;2024-02-26T15:08:26;48223.56;;;-144.43;90.99
37486;BME280;23341;50.296;18.960;2024-02-26T15:10:54;48185.59;;;-144.43;91.02
37486;BME280;23341;50.296;18.960;2024-02-26T15:13:23;48183.59;;;-144.43;90.53
37486;BME280;23341;50.296;18.960;2024-02-26T15:15:50;48207.59;;;-144.43;90.12
37486;BME280;23341;50.296;18.960;2024-02-26T15:18:18;48207.59;;;-144.43;89.65
37486;BME280;23341;50.296;18.960;2024-02-26T15:20:45;48207.59;;;-144.43;89.78
37486;BME280;23341;50.296;18.960;2024-02-26T15:23:13;48201.59;;;-144.43;90.76
37486;BME280;23341;50.296;18.960;2024-02-26T15:25:40;48199.59;;;-144.43;91.12
37486;BME280;23341;50.296;18.960;2024-02-26T15:28:08;48195.59;;;-144.43;92.17
37486;BME280;23341;50.296;18.960;2024-02-26T15:30:38;48197.59;;;-144.43;92.46
37486;BME280;23341;50.296;18.960;2024-02-26T15:33:06;48197.59;;;-144.43;92.69
37486;BME280;23341;50.296;18.960;2024-02-26T15:35:34;48251.53;;;-144.43;92.36
37486;BME280;23341;50.296;18.960;2024-02-26T15:38:03;48177.63;;;-144.43;93.68
37486;BME280;23341;50.296;18.960;2024-02-26T15:40:30;48183.59;;;-144.43;95.16
37486;BME280;23341;50.296;18.960;2024-02-26T15:42:58;48201.59;;;-144.43;94.82
37486;BME280;23341;50.296;18.960;2024-02-26T15:45:25;48193.59;;;-144.43;96.80
37486;BME280;23341;50.296;18.960;2024-02-26T15:47:56;48195.59;;;-144.43;96.78
37486;BME280;23341;50.296;18.960;2024-02-26T15:50:24;48223.56;;;-144.43;96.02
37486;BME280;23341;50.296;18.960;2024-02-26T15:52:51;48195.59;;;-144.43;95.87
37486;BME280;23341;50.296;18.960;2024-02-26T15:55:19;48189.59;;;-144.43;96.65
37486;BME280;23341;50.296;18.960;2024-02-26T15:57:47;48197.59;;;-144.43;96.68
37486;BME280;23341;50.296;18.960;2024-02-26T16:00:15;48197.59;;;-144.43;96.66
37486;BME280;23341;50.296;18.960;2024-02-26T16:02:47;48179.59;;;-144.43;96.94
37486;BME280;23341;50.296;18.960;2024-02-26T16:05:16;48201.59;;;-144.43;99.78
37486;BME280;23341;50.296;18.960;2024-02-26T16:07:46;48209.59;;;-144.43;99.37
37486;BME280;23341;50.296;18.960;2024-02-26T16:10:17;48197.59;;;-144.43;99.02
37486;BME280;23341;50.296;18.960;2024-02-26T16:12:49;48177.63;;;-144.43;99.44
37486;BME280;23341;50.296;18.960;2024-02-26T16:15:18;48171.63;;;-144.43;100.00
37486;BME280;23341;50.296;18.960;2024-02-26T16:17:48;48191.59;;;-144.43;100.00
37486;BME280;23341;50.296;18.960;2024-02-26T16:20:19;48191.59;;;-144.43;100.00
37486;BME280;23341;50.296;18.960;2024-02-26T16:22:48;48187.59;;;-144.43;99.98
37486;BME280;23341;50.296;18.960;2024-02-26T16:25:15;48181.59;;;-144.43;100.00
37486;BME280;23341;50.296;18.960;2024-02-26T16:27:44;48199.59;;;-144.43;100.00
37486;BME280;23341;50.296;18.960;2024-02-26T16:30:12;48199.59;;;-144.43;100.00
37486;BME280;23341;50.296;18.960;2024-02-26T16:32:40;48191.59;;;-144.43;100.00
37486;BME280;23341;50.296;18.960;2024-02-26T16:35:09;48179.59;;;-144.43;100.00
37486;BME280;23341;50.296;18.960;2024-02-26T16:37:39;48193.59;;;-144.43;100.00
37486;BME280;23341;50.296;18.960;2024-02-26T16:40:07;48195.59;;;-144.43;100.00
37486;BME280;23341;50.296;18.960;2024-02-26T16:42:36;48189.59;;;-144.43;100.00
37486;BME280;23341;50.296;18.960;2024-02-26T16:45:04;48197.59;;;-144.43;100.00
37486;BME280;23341;50.296;18.960;2024-02-26T16:47:32;48189.59;;;-144.43;100.00
37486;BME280;23341;50.296;18.960;2024-02-26T16:50:00;48187.59;;;-144.43;100.00
37486;BME280;23341;50.296;18.960;2024-02-26T16:52:28;48193.59;;;-144.43;100.00
37486;BME280;23341;50.296;18.960;2024-02-26T16:54:57;48191.59;;;-144.43;100.00
37486;BME280;23341;50.296;18.960;2024-02-26T16:57:24;48165.63;;;-144.43;100.00
37486;BME280;23341;50.296;18.960;2024-02-26T16:59:52;48199.59;;;-144.43;99.77
37486;BME280;23341;50.296;18.960;2024-02-26T17:02:19;48187.59;;;-144.43;100.00
37486;BME280;23341;50.296;18.960;2024-02-26T17:04:47;48171.63;;;-144.43;100.00
37486;BME280;23341;50.296;18.960;2024-02-26T17:07:14;48181.59;;;-144.43;100.00
37486;BME280;23341;50.296;18.960;2024-02-26T17:09:42;48159.63;;;-144.43;100.00
37486;BME280;23341;50.296;18.960;2024-02-26T17:12:11;48161.63;;;-144.43;100.00
37486;BME280;23341;50.296;18.960;2024-02-26T17:14:38;48159.63;;;-144.43;100.00
37486;BME280;23341;50.296;18.960;2024-02-26T17:17:06;48147.63;;;-144.43;100.00
37486;BME280;23341;50.296;18.960;2024-02-26T17:19:33;48155.63;;;-144.43;100.00
37486;BME280;23341;50.296;18.960;2024-02-26T17:22:01;48161.63;;;-144.43;100.00
37486;BME280;23341;50.296;18.960;2024-02-26T17:24:28;48165.63;;;-144.43;100.00
37486;BME280;23341;50.296;18.960;2024-02-26T17:26:56;48165.63;;;-144.43;100.00
37486;BME280;23341;50.296;18.960;2024-02-26T17:29:25;48191.59;;;-144.43;100.00
37486;BME280;23341;50.296;18.960;2024-02-26T17:31:52;48173.63;;;-144.43;100.00
37486;BME280;23341;50.296;18.960;2024-02-26T17:34:19;48175.63;;;-144.43;100.00
37486;BME280;23341;50.296;18.960;2024-02-26T17:36:47;48163.63;;;-144.43;100.00
37486;BME280;23341;50.296;18.960;2024-02-26T17:39:14;48159.63;;;-144.43;100.00
37486;BME280;23341;50.296;18.960;2024-02-26T17:41:42;48195.59;;;-144.43;100.00
37486;BME280;23341;50.296;18.960;2024-02-26T17:44:11;48173.63;;;-144.43;100.00
37486;BME280;23341;50.296;18.960;2024-02-26T17:46:40;48163.63;;;-144.43;100.00
37486;BME280;23341;50.296;18.960;2024-02-26T17:49:07;48147.63;;;-144.43;100.00
37486;BME280;23341;50.296;18.960;2024-02-26T17:51:35;48179.59;;;-144.43;100.00
37486;BME280;23341;50.296;18.960;2024-02-26T17:54:03;48173.63;;;-144.43;100.00
37486;BME280;23341;50.296;18.960;2024-02-26T17:56:31;48171.63;;;-144.43;100.00
37486;BME280;23341;50.296;18.960;2024-02-26T17:58:58;48169.63;;;-144.43;100.00
37486;BME280;23341;50.296;18.960;2024-02-26T18:01:26;48183.59;;;-144.43;100.00
37486;BME280;23341;50.296;18.960;2024-02-26T18:03:55;48159.63;;;-144.43;100.00
37486;BME280;23341;50.296;18.960;2024-02-26T18:06:23;48179.59;;;-144.43;100.00
37486;BME280;23341;50.296;18.960;2024-02-26T18:08:50;48177.63;;;-144.43;100.00
37486;BME280;23341;50.296;18.960;2024-02-26T18:11:18;48163.63;;;-144.43;100.00
37486;BME280;23341;50.296;18.960;2024-02-26T18:13:45;48161.63;;;-144.43;100.00
37486;BME280;23341;50.296;18.960;2024-02-26T18:16:13;48179.59;;;-144.43;100.00
37486;BME280;23341;50.296;18.960;2024-02-26T18:18:40;48159.63;;;-144.43;100.00
37486;BME280;23341;50.296;18.960;2024-02-26T18:21:13;48175.63;;;-144.43;100.00
37486;BME280;23341;50.296;18.960;2024-02-26T18:23:42;48165.63;;;-144.43;100.00
37486;BME280;23341;50.296;18.960;2024-02-26T18:26:10;48171.63;;;-144.43;100.00
37486;BME280;23341;50.296;18.960;2024-02-26T18:28:38;48147.63;;;-144.43;100.00
37486;BME280;23341;50.296;18.960;2024-02-26T18:31:05;48161.63;;;-144.43;100.00
37486;BME280;23341;50.296;18.960;2024-02-26T18:33:33;48161.63;;;-144.43;100.00
37486;BME280;23341;50.296;18.960;2024-02-26T18:36:04;48163.63;;;-144.43;100.00
37486;BME280;23341;50.296;18.960;2024-02-26T18:38:33;48151.63;;;-144.43;100.00
37486;BME280;23341;50.296;18.960;2024-02-26T18:41:00;48151.63;;;-144.43;100.00
37486;BME280;23341;50.296;18.960;2024-02-26T18:43:28;48161.63;;;-144.43;100.00
37486;BME280;23341;50.296;18.960;2024-02-26T18:45:57;48143.66;;;-144.43;100.00
37486;BME280;23341;50.296;18.960;2024-02-26T18:48:24;48151.63;;;-144.43;100.00
37486;BME280;23341;50.296;18.960;2024-02-26T18:50:52;48145.66;;;-144.43;100.00
37486;BME280;23341;50.296;18.960;2024-02-26T18:53:19;48125.66;;;-144.43;100.00
37486;BME280;23341;50.296;18.960;2024-02-26T18:55:49;48153.63;;;-144.43;100.00
37486;BME280;23341;50.296;18.960;2024-02-26T18:58:16;48163.63;;;-144.43;100.00
37486;BME280;23341;50.296;18.960;2024-02-26T19:00:43;48127.66;;;-144.43;100.00
37486;BME280;23341;50.296;18.960;2024-02-26T19:03:12;48145.66;;;-144.43;100.00
37486;BME280;23341;50.296;18.960;2024-02-26T19:05:39;48141.66;;;-144.43;100.00
37486;BME280;23341;50.296;18.960;2024-02-26T19:08:07;48127.66;;;-144.43;100.00
37486;BME280;23341;50.296;18.960;2024-02-26T19:10:34;48163.63;;;-144.43;100.00
37486;BME280;23341;50.296;18.960;2024-02-26T19:13:03;48159.63;;;-144.43;100.00
37486;BME280;23341;50.296;18.960;2024-02-26T19:15:31;48151.63;;;-144.43;100.00
37486;BME280;23341;50.296;18.960;2024-02-26T19:17:59;48139.66;;;-144.43;100.00
37486;BME280;23341;50.296;18.960;2024-02-26T19:20:27;48143.66;;;-144.43;100.00
37486;BME280;23341;50.296;18.960;2024-02-26T19:22:55;48127.66;;;-144.43;100.00
37486;BME280;23341;50.296;18.960;2024-02-26T19:25:22;48135.66;;;-144.43;100.00
37486;BME280;23341;50.296;18.960;2024-02-26T19:27:50;48139.66;;;-144.43;100.00
37486;BME280;23341;50.296;18.960;2024-02-26T19:30:19;48143.66;;;-144.43;100.00
37486;BME280;23341;50.296;18.960;2024-02-26T19:32:46;48145.66;;;-144.43;100.00
37486;BME280;23341;50.296;18.960;2024-02-26T19:35:14;48129.66;;;-144.43;100.00
37486;BME280;23341;50.296;18.960;2024-02-26T19:37:42;48149.63;;;-144.43;100.00
37486;BME280;23341;50.296;18.960;2024-02-26T19:40:12;48139.66;;;-144.43;100.00
37486;BME280;23341;50.296;18.960;2024-02-26T19:42:40;48147.63;;;-144.43;100.00
37486;BME280;23341;50.296;18.960;2024-02-26T19:45:09;48151.63;;;-144.43;100.00
37486;BME280;23341;50.296;18.960;2024-02-26T19:47:39;48147.63;;;-144.43;100.00
37486;BME280;23341;50.296;18.960;2024-02-26T19:50:08;48139.66;;;-144.43;100.00
37486;BME280;23341;50.296;18.960;2024-02-26T19:52:36;48137.66;;;-144.43;100.00
37486;BME280;23341;50.296;18.960;2024-02-26T19:55:04;48133.66;;;-144.43;100.00
37486;BME280;23341;50.296;18.960;2024-02-26T19:57:34;48133.66;;;-144.43;100.00
37486;BME280;23341;50.296;18.960;2024-02-26T20:00:02;48101.69;;;-144.43;100.00
37486;BME280;23341;50.296;18.960;2024-02-26T20:02:29;48133.66;;;-144.43;100.00
37486;BME280;23341;50.296;18.960;2024-02-26T20:04:58;48129.66;;;-144.43;100.00
37486;BME280;23341;50.296;18.960;2024-02-26T20:07:26;48131.66;;;-144.43;100.00
37486;BME280;23341;50.296;18.960;2024-02-26T20:09:54;48141.66;;;-144.43;100.00
37486;BME280;23341;50.296;18.960;2024-02-26T20:12:21;48127.66;;;-144.43;100.00
37486;BME280;23341;50.296;18.960;2024-02-26T20:14:49;48139.66;;;-144.43;100.00
37486;BME280;23341;50.296;18.960;2024-02-26T20:17:16;48131.66;;;-144.43;100.00
37486;BME280;23341;50.296;18.960;2024-02-26T20:19:45;48131.66;;;-144.43;100.00
37486;BME280;23341;50.296;18.960;2024-02-26T20:22:14;48107.69;;;-144.43;100.00
37486;BME280;23341;50.296;18.960;2024-02-26T20:24:42;48111.69;;;-144.43;100.00
37486;BME280;23341;50.296;18.960;2024-02-26T20:27:09;48123.66;;;-144.43;100.00
37486;BME280;23341;50.296;18.960;2024-02-26T20:29:37;48095.69;;;-144.43;100.00
37486;BME280;23341;50.296;18.960;2024-02-26T20:32:05;48121.66;;;-144.43;100.00
37486;BME280;23341;50.296;18.960;2024-02-26T20:34:33;48119.66;;;-144.43;100.00
37486;BME280;23341;50.296;18.960;2024-02-26T20:37:01;48107.69;;;-144.43;100.00
37486;BME280;23341;50.296;18.960;2024-02-26T20:39:30;48127.66;;;-144.43;100.00
37486;BME280;23341;50.296;18.960;2024-02-26T20:41:57;48119.66;;;-144.43;100.00
37486;BME280;23341;50.296;18.960;2024-02-26T20:44:25;48123.66;;;-144.43;100.00
37486;BME280;23341;50.296;18.960;2024-02-26T20:46:52;48131.66;;;-144.43;100.00
37486;BME280;23341;50.296;18.960;2024-02-26T20:49:24;48117.66;;;-144.43;100.00
37486;BME280;23341;50.296;18.960;2024-02-26T20:51:52;48127.66;;;-144.43;100.00
37486;BME280;23341;50.296;18.960;2024-02-26T20:54:19;48129.66;;;-144.43;100.00
37486;BME280;23341;50.296;18.960;2024-02-26T20:56:48;48085.69;;;-144.43;100.00
37486;BME280;23341;50.296;18.960;2024-02-26T20:59:17;48111.69;;;-144.43;100.00
37486;BME280;23341;50.296;18.960;2024-02-26T21:01:46;48107.69;;;-144.43;100.00
37486;BME280;23341;50.296;18.960;2024-02-26T21:04:14;48099.69;;;-144.43;100.00
37486;BME280;23341;50.296;18.960;2024-02-26T21:06:41;48115.66;;;-144.43;100.00
37486;BME280;23341;50.296;18.960;2024-02-26T21:09:09;48105.69;;;-144.43;100.00
37486;BME280;23341;50.296;18.960;2024-02-26T21:11:38;48121.66;;;-144.43;100.00
37486;BME280;23341;50.296;18.960;2024-02-26T21:14:09;48155.63;;;-144.43;100.00
37486;BME280;23341;50.296;18.960;2024-02-26T21:16:36;48105.69;;;-144.43;100.00
37486;BME280;23341;50.296;18.960;2024-02-26T21:19:04;48105.69;;;-144.43;100.00
37486;BME280;23341;50.296;18.960;2024-02-26T21:21:32;48123.66;;;-144.43;100.00
37486;BME280;23341;50.296;18.960;2024-02-26T21:24:01;48127.66;;;-144.43;100.00
37486;BME280;23341;50.296;18.960;2024-02-26T21:26:28;48099.69;;;-144.43;100.00
37486;BME280;23341;50.296;18.960;2024-02-26T21:28:55;48099.69;;;-144.43;100.00
37486;BME280;23341;50.296;18.960;2024-02-26T21:31:24;48115.66;;;-144.43;100.00
37486;BME280;23341;50.296;18.960;2024-02-26T21:33:52;48117.66;;;-144.43;100.00
37486;BME280;23341;50.296;18.960;2024-02-26T21:36:19;48107.69;;;-144.43;100.00
37486;BME280;23341;50.296;18.960;2024-02-26T21:38:47;48095.69;;;-144.43;100.00
37486;BME280;23341;50.296;18.960;2024-02-26T21:41:14;48107.69;;;-144.43;100.00
37486;BME280;23341;50.296;18.960;2024-02-26T21:43:43;48113.69;;;-144.43;100.00
37486;BME280;23341;50.296;18.960;2024-02-26T21:46:15;48103.69;;;-144.43;100.00
37486;BME280;23341;50.296;18.960;2024-02-26T21:48:44;48099.69;;;-144.43;100.00
37486;BME280;23341;50.296;18.960;2024-02-26T21:51:12;48103.69;;;-144.43;100.00
37486;BME280;23341;50.296;18.960;2024-02-26T21:53:39;48107.69;;;-144.43;100.00
37486;BME280;23341;50.296;18.960;2024-02-26T21:56:07;48093.69;;;-144.43;100.00
37486;BME280;23341;50.296;18.960;2024-02-26T21:58:35;48103.69;;;-144.43;100.00
37486;BME280;23341;50.296;18.960;2024-02-26T22:01:02;48091.69;;;-144.43;100.00
37486;BME280;23341;50.296;18.960;2024-02-26T22:03:30;48113.69;;;-144.43;100.00
37486;BME280;23341;50.296;18.960;2024-02-26T22:05:58;48107.69;;;-144.43;100.00
37486;BME280;23341;50.296;18.960;2024-02-26T22:08:26;48105.69;;;-144.43;100.00
37486;BME280;23341;50.296;18.960;2024-02-26T22:10:53;48107.69;;;-144.43;100.00
37486;BME280;23341;50.296;18.960;2024-02-26T22:13:21;48117.66;;;-144.43;100.00
37486;BME280;23341;50.296;18.960;2024-02-26T22:15:48;48071.72;;;-144.43;100.00
37486;BME280;23341;50.296;18.960;2024-02-26T22:18:16;48099.69;;;-144.43;100.00
37486;BME280;23341;50.296;18.960;2024-02-26T22:20:43;48099.69;;;-144.43;100.00
37486;BME280;23341;50.296;18.960;2024-02-26T22:23:12;48115.66;;;-144.43;100.00
37486;BME280;23341;50.296;18.960;2024-02-26T22:25:40;48103.69;;;-144.43;100.00
37486;BME280;23341;50.296;18.960;2024-02-26T22:28:07;48111.69;;;-144.43;100.00
37486;BME280;23341;50.296;18.960;2024-02-26T22:30:34;48111.69;;;-144.43;100.00
37486;BME280;23341;50.296;18.960;2024-02-26T22:33:04;48081.72;;;-144.43;100.00
37486;BME280;23341;50.296;18.960;2024-02-26T22:35:31;48083.72;;;-144.43;100.00
37486;BME280;23341;50.296;18.960;2024-02-26T22:37:59;48093.69;;;-144.43;100.00
37486;BME280;23341;50.296;18.960;2024-02-26T22:40:27;48103.69;;;-144.43;100.00
37486;BME280;23341;50.296;18.960;2024-02-26T22:42:55;48117.66;;;-144.43;100.00
37486;BME280;23341;50.296;18.960;2024-02-26T22:45:22;48115.66;;;-144.43;100.00
37486;BME280;23341;50.296;18.960;2024-02-26T22:47:53;48119.66;;;-144.43;100.00
37486;BME280;23341;50.296;18.960;2024-02-26T22:50:20;48091.69;;;-144.43;100.00
37486;BME280;23341;50.296;18.960;2024-02-26T22:52:47;48127.66;;;-144.43;100.00
37486;BME280;23341;50.296;18.960;2024-02-26T22:55:16;48103.69;;;-144.43;100.00
37486;BME280;23341;50.296;18.960;2024-02-26T22:57:45;48091.69;;;-144.43;100.00
37486;BME280;23341;50.296;18.960;2024-02-26T23:00:14;48095.69;;;-144.43;100.00
37486;BME280;23341;50.296;18.960;2024-02-26T23:02:53;48119.66;;;-144.43;100.00
37486;BME280;23341;50.296;18.960;2024-02-26T23:05:22;48127.66;;;-144.43;100.00
37486;BME280;23341;50.296;18.960;2024-02-26T23:07:50;48113.69;;;-144.43;100.00
37486;BME280;23341;50.296;18.960;2024-02-26T23:10:17;48127.66;;;-144.43;100.00
37486;BME280;23341;50.296;18.960;2024-02-26T23:12:46;48103.69;;;-144.43;100.00
37486;BME280;23341;50.296;18.960;2024-02-26T23:15:14;48103.69;;;-144.43;100.00
37486;BME280;23341;50.296;18.960;2024-02-26T23:17:42;48105.69;;;-144.43;100.00
37486;BME280;23341;50.296;18.960;2024-02-26T23:20:10;48103.69;;;-144.43;100.00
37486;BME280;23341;50.296;18.960;2024-02-26T23:22:40;48095.69;;;-144.43;100.00
37486;BME280;23341;50.296;18.960;2024-02-26T23:25:09;48111.69;;;-144.43;100.00
37486;BME280;23341;50.296;18.960;2024-02-26T23:27:37;48099.69;;;-144.43;100.00
37486;BME280;23341;50.296;18.960;2024-02-26T23:30:08;48099.69;;;-144.43;100.00
37486;BME280;23341;50.296;18.960;2024-02-26T23:32:36;48099.69;;;-144.43;100.00
37486;BME280;23341;50.296;18.960;2024-02-26T23:35:05;48095.69;;;-144.43;100.00
37486;BME280;23341;50.296;18.960;2024-02-26T23:37:33;48103.69;;;-144.43;100.00
37486;BME280;23341;50.296;18.960;2024-02-26T23:40:01;48101.69;;;-144.43;100.00
37486;BME280;23341;50.296;18.960;2024-02-26T23:42:28;48121.66;;;-144.43;100.00
37486;BME280;23341;50.296;18.960;2024-02-26T23:44:56;48091.69;;;-144.43;100.00
37486;BME280;23341;50.296;18.960;2024-02-26T23:47:25;48125.66;;;-144.43;100.00
37486;BME280;23341;50.296;18.960;2024-02-26T23:49:53;48103.69;;;-144.43;100.00
37486;BME280;23341;50.296;18.960;2024-02-26T23:52:21;48097.69;;;-144.43;100.00
37486;BME280;23341;50.296;18.960;2024-02-26T23:54:49;48079.72;;;-144.43;100.00
37486;BME280;23341;50.296;18.960;2024-02-26T23:57:16;48075.72;;;-144.43;100.00
37486;BME280;23341;50.296;18.960;2024-02-26T23:59:44;48083.72;;;-144.43;100.00
